Time;durP1;ratioP1;P1;durP2;ratioP2;P2;SDS_P1;SDS_P2;PMS_P1;PMS_P2;Temp;Humidity;BMP_temperature;BMP_pressure;BME280_temperature;BME280_humidity;BME280_pressure;Samples;Min_cycle;Max_cycle;Signal;HPM_P1;HPM_P2
2020/12/07 00:01:33;;;;;;;20.92;10.95;;;8.60;99.90;;;;;;5048150;28;20021;-77
2020/12/07 00:03:59;;;;;;;22.08;11.00;;;8.60;99.90;;;;;;5034335;28;20030;-77
2020/12/07 00:06:24;;;;;;;22.83;10.88;;;8.60;99.90;;;;;;5046656;28;20037;-77
2020/12/07 00:08:50;;;;;;;19.70;10.65;;;8.50;99.90;;;;;;5045937;28;20055;-77
2020/12/07 00:11:15;;;;;;;21.30;10.85;;;8.50;99.90;;;;;;5047660;28;20084;-77
2020/12/07 00:13:41;;;;;;;18.25;10.10;;;8.50;99.90;;;;;;5043029;28;20430;-77
2020/12/07 00:16:08;;;;;;;19.83;10.27;;;8.50;99.90;;;;;;5047074;28;20153;-77
2020/12/07 00:18:34;;;;;;;22.02;10.55;;;8.60;99.90;;;;;;5040077;28;20025;-77
2020/12/07 00:21:00;;;;;;;23.65;11.63;;;8.50;99.90;;;;;;5041283;28;20530;-77
2020/12/07 00:23:25;;;;;;;23.83;10.88;;;8.60;99.90;;;;;;5043004;28;20029;-77
2020/12/07 00:25:51;;;;;;;21.13;10.68;;;8.60;99.90;;;;;;5049533;28;20029;-77
2020/12/07 00:28:16;;;;;;;22.42;10.85;;;8.60;99.90;;;;;;5044931;28;20045;-77
2020/12/07 00:30:42;;;;;;;19.33;10.48;;;8.70;99.90;;;;;;5040435;28;20372;-77
2020/12/07 00:33:07;;;;;;;21.52;10.95;;;8.70;99.90;;;;;;5045492;28;20044;-77
2020/12/07 00:35:32;;;;;;;19.75;10.50;;;8.60;99.90;;;;;;5047071;28;20029;-77
2020/12/07 00:37:58;;;;;;;19.65;10.05;;;8.70;99.90;;;;;;5041372;28;20037;-77
2020/12/07 00:40:23;;;;;;;22.02;10.57;;;8.70;99.90;;;;;;5047339;28;20121;-77
2020/12/07 00:42:49;;;;;;;20.88;10.15;;;8.70;99.90;;;;;;5030611;28;20057;-77
2020/12/07 00:45:15;;;;;;;20.98;10.50;;;8.70;99.90;;;;;;5046395;28;20551;-77
2020/12/07 00:47:40;;;;;;;20.73;10.25;;;8.80;99.90;;;;;;5046536;28;20044;-77
2020/12/07 00:50:06;;;;;;;20.08;10.43;;;8.80;99.90;;;;;;5046133;28;20033;-77
2020/12/07 00:52:32;;;;;;;21.67;10.40;;;8.80;99.90;;;;;;5047002;28;20029;-77
2020/12/07 00:54:57;;;;;;;22.25;10.55;;;8.80;99.90;;;;;;5039256;28;20068;-78
2020/12/07 00:57:23;;;;;;;18.40;10.38;;;8.80;99.90;;;;;;5037533;28;20032;-77
2020/12/07 00:59:48;;;;;;;19.70;10.85;;;8.70;99.90;;;;;;5046237;28;20757;-77
2020/12/07 01:02:14;;;;;;;19.67;10.38;;;8.70;99.90;;;;;;5045572;28;20065;-77
2020/12/07 01:04:39;;;;;;;17.90;9.73;;;8.80;99.90;;;;;;5034493;28;20099;-77
2020/12/07 01:07:05;;;;;;;20.83;10.63;;;8.70;99.90;;;;;;5041733;28;20581;-77
2020/12/07 01:09:30;;;;;;;18.70;9.80;;;8.80;99.90;;;;;;5033107;28;20124;-77
2020/12/07 01:11:57;;;;;;;21.02;9.65;;;8.80;99.90;;;;;;5044955;28;20038;-77
2020/12/07 01:14:23;;;;;;;18.77;10.30;;;8.80;99.90;;;;;;5036915;28;20032;-77
2020/12/07 01:16:50;;;;;;;23.55;9.80;;;8.80;99.90;;;;;;5040589;28;20498;-77
2020/12/07 01:19:17;;;;;;;22.38;10.10;;;8.80;99.90;;;;;;5045871;28;20029;-77
2020/12/07 01:21:42;;;;;;;21.70;10.15;;;8.80;99.90;;;;;;5045370;28;20029;-77
2020/12/07 01:24:08;;;;;;;21.00;10.00;;;8.80;99.90;;;;;;5043537;28;20608;-77
2020/12/07 01:26:34;;;;;;;22.33;10.13;;;8.70;99.90;;;;;;5043755;28;20093;-77
2020/12/07 01:29:02;;;;;;;18.25;10.35;;;8.70;99.90;;;;;;5046680;28;20037;-77
2020/12/07 01:31:27;;;;;;;19.58;10.70;;;8.70;99.90;;;;;;5040072;28;20040;-77
2020/12/07 01:33:53;;;;;;;20.30;10.48;;;8.60;99.90;;;;;;5046320;28;20025;-77
2020/12/07 01:36:19;;;;;;;20.13;10.20;;;8.70;99.90;;;;;;5041873;28;20030;-77
2020/12/07 01:38:44;;;;;;;18.55;10.57;;;8.70;99.90;;;;;;5033211;28;20024;-77
2020/12/07 01:41:10;;;;;;;22.80;10.52;;;8.60;99.90;;;;;;5031896;28;20038;-77
2020/12/07 01:43:35;;;;;;;19.45;10.90;;;8.60;99.90;;;;;;5031068;28;20360;-77
2020/12/07 01:46:01;;;;;;;22.08;9.93;;;8.60;99.90;;;;;;5045369;28;20049;-77
2020/12/07 01:48:28;;;;;;;19.27;9.98;;;8.50;99.90;;;;;;5045920;28;20221;-77
2020/12/07 01:50:54;;;;;;;20.65;10.45;;;8.50;99.90;;;;;;5045232;28;20387;-77
2020/12/07 01:53:23;;;;;;;21.38;10.45;;;8.40;99.90;;;;;;5045777;28;20021;-77
2020/12/07 01:55:49;;;;;;;22.65;10.25;;;8.40;99.90;;;;;;5045846;28;20036;-77
2020/12/07 01:58:15;;;;;;;21.77;9.75;;;8.40;99.90;;;;;;5044456;28;20021;-77
2020/12/07 02:00:41;;;;;;;22.27;10.80;;;8.40;99.90;;;;;;5043313;28;20437;-77
2020/12/07 02:03:08;;;;;;;21.33;10.88;;;8.40;99.90;;;;;;5044776;28;20396;-77
2020/12/07 02:05:35;;;;;;;20.45;10.10;;;8.40;99.90;;;;;;5036464;28;20100;-77
2020/12/07 02:08:09;;;;;;;21.45;10.85;;;8.40;99.90;;;;;;5042547;28;20062;-77
2020/12/07 02:10:35;;;;;;;23.80;11.45;;;8.40;99.90;;;;;;5028519;28;20109;-77
2020/12/07 02:13:00;;;;;;;20.88;11.15;;;8.50;99.90;;;;;;5040548;28;20100;-77
2020/12/07 02:15:26;;;;;;;21.88;11.23;;;8.40;99.90;;;;;;5045675;28;20083;-77
2020/12/07 02:17:51;;;;;;;23.55;10.75;;;8.50;99.90;;;;;;5041397;28;20029;-77
2020/12/07 02:20:17;;;;;;;22.48;10.93;;;8.50;99.90;;;;;;5038329;28;20032;-77
2020/12/07 02:22:42;;;;;;;18.75;9.25;;;8.50;99.90;;;;;;5045210;28;20048;-77
2020/12/07 02:25:07;;;;;;;19.88;10.88;;;8.50;99.90;;;;;;5038228;28;20502;-77
2020/12/07 02:27:33;;;;;;;21.42;11.20;;;8.50;99.90;;;;;;5039934;28;20033;-77
2020/12/07 02:29:58;;;;;;;19.02;10.00;;;8.50;99.90;;;;;;5037141;28;20055;-77
2020/12/07 02:32:24;;;;;;;26.48;10.82;;;8.40;99.90;;;;;;5037282;28;20036;-77
2020/12/07 02:34:49;;;;;;;25.10;11.10;;;8.40;99.90;;;;;;5033686;28;20448;-77
2020/12/07 02:37:15;;;;;;;24.25;11.00;;;8.40;99.90;;;;;;5038018;28;20032;-77
2020/12/07 02:39:40;;;;;;;19.25;10.40;;;8.40;99.90;;;;;;5041285;28;20029;-77
2020/12/07 02:42:06;;;;;;;22.38;10.45;;;8.40;99.90;;;;;;5045253;28;20032;-77
2020/12/07 02:44:31;;;;;;;23.65;10.20;;;8.40;99.90;;;;;;5037991;28;20131;-77
2020/12/07 02:47:00;;;;;;;20.95;10.75;;;8.40;99.90;;;;;;5036326;28;20029;-77
2020/12/07 02:49:27;;;;;;;22.00;10.77;;;8.40;99.90;;;;;;5040341;28;20646;-77
2020/12/07 02:51:53;;;;;;;20.85;10.23;;;8.40;99.90;;;;;;5047687;28;20047;-77
2020/12/07 02:54:18;;;;;;;22.52;11.13;;;8.40;99.90;;;;;;5038583;28;20048;-77
2020/12/07 02:56:44;;;;;;;22.30;10.32;;;8.40;99.90;;;;;;5037162;28;20025;-77
2020/12/07 02:59:10;;;;;;;21.88;10.50;;;8.40;99.90;;;;;;5045101;28;20029;-77
2020/12/07 03:01:36;;;;;;;20.55;10.52;;;8.50;99.90;;;;;;5045190;28;20398;-77
2020/12/07 03:04:01;;;;;;;20.55;10.85;;;8.50;99.90;;;;;;5050853;28;20029;-77
2020/12/07 03:06:27;;;;;;;19.23;10.02;;;8.50;99.90;;;;;;5043337;28;20064;-77
2020/12/07 03:08:54;;;;;;;20.90;10.02;;;8.50;99.90;;;;;;5036508;28;20484;-77
2020/12/07 03:11:20;;;;;;;22.63;10.45;;;8.50;99.90;;;;;;5045076;28;20041;-77
2020/12/07 03:13:45;;;;;;;20.48;10.55;;;8.50;99.90;;;;;;5042094;28;20021;-77
2020/12/07 03:16:11;;;;;;;18.67;9.93;;;8.50;99.90;;;;;;5051084;28;20031;-77
2020/12/07 03:18:36;;;;;;;20.10;10.48;;;8.60;99.90;;;;;;5046559;28;20106;-77
2020/12/07 03:21:02;;;;;;;19.15;10.90;;;8.60;99.90;;;;;;5048669;28;20084;-77
2020/12/07 03:23:28;;;;;;;18.90;9.85;;;8.60;99.90;;;;;;5044361;28;20227;-77
2020/12/07 03:25:53;;;;;;;21.20;10.98;;;8.60;99.90;;;;;;5049306;28;20025;-77
2020/12/07 03:28:19;;;;;;;20.58;10.07;;;8.60;99.90;;;;;;5048531;28;20120;-77
2020/12/07 03:30:44;;;;;;;20.27;10.32;;;8.60;99.90;;;;;;5049696;28;20025;-77
2020/12/07 03:33:10;;;;;;;26.88;10.60;;;8.60;99.90;;;;;;5049650;28;20426;-77
2020/12/07 03:35:35;;;;;;;22.52;10.73;;;8.70;99.90;;;;;;5035924;28;20032;-77
2020/12/07 03:38:00;;;;;;;19.42;9.75;;;8.60;99.90;;;;;;5050152;28;20044;-77
2020/12/07 03:40:26;;;;;;;21.10;10.27;;;8.70;99.90;;;;;;5044939;28;20079;-77
2020/12/07 03:42:51;;;;;;;23.20;11.02;;;8.70;99.90;;;;;;5049887;28;20021;-77
2020/12/07 03:45:17;;;;;;;22.50;10.48;;;8.60;99.90;;;;;;5030533;28;20045;-77
2020/12/07 03:47:42;;;;;;;23.77;10.52;;;8.70;99.90;;;;;;5044406;28;20025;-77
2020/12/07 03:50:08;;;;;;;20.75;10.15;;;8.70;99.90;;;;;;5049472;28;20021;-77
2020/12/07 03:52:33;;;;;;;20.33;10.05;;;8.60;99.90;;;;;;5039835;28;20049;-77
2020/12/07 03:54:59;;;;;;;23.58;10.80;;;8.60;99.90;;;;;;5046920;28;20039;-77
2020/12/07 03:57:24;;;;;;;21.27;10.48;;;8.60;99.90;;;;;;5048566;28;20021;-77
2020/12/07 03:59:49;;;;;;;24.65;10.25;;;8.60;99.90;;;;;;5048026;28;20063;-77
2020/12/07 04:02:15;;;;;;;21.83;9.57;;;8.60;99.90;;;;;;5038263;28;20022;-77
2020/12/07 04:04:54;;;;;;;23.08;10.32;;;8.50;99.90;;;;;;5040925;28;20024;-77
2020/12/07 04:07:20;;;;;;;22.25;10.52;;;8.60;99.90;;;;;;5050241;28;20070;-77
2020/12/07 04:09:45;;;;;;;22.00;10.20;;;8.60;99.90;;;;;;5038927;28;20017;-77
2020/12/07 04:12:11;;;;;;;18.88;10.27;;;8.50;99.90;;;;;;5030000;28;20040;-77
2020/12/07 04:14:36;;;;;;;17.92;9.93;;;8.50;99.90;;;;;;5046463;28;20033;-77
2020/12/07 04:17:02;;;;;;;20.35;10.10;;;8.50;99.90;;;;;;5047276;28;20106;-77
2020/12/07 04:19:27;;;;;;;21.30;10.60;;;8.50;99.90;;;;;;5046183;28;20040;-77
2020/12/07 04:21:53;;;;;;;25.92;10.77;;;8.50;99.90;;;;;;5046750;28;20067;-77
2020/12/07 04:24:18;;;;;;;22.65;10.45;;;8.50;99.90;;;;;;5049255;28;20052;-77
2020/12/07 04:26:43;;;;;;;20.65;10.48;;;8.50;99.90;;;;;;5045195;28;20029;-77
2020/12/07 04:29:09;;;;;;;20.30;10.60;;;8.40;99.90;;;;;;5045466;28;20041;-77
2020/12/07 04:31:34;;;;;;;23.83;11.45;;;8.40;99.90;;;;;;5048388;28;20670;-77
2020/12/07 04:34:00;;;;;;;22.63;10.98;;;8.40;99.90;;;;;;5044120;28;20021;-77
2020/12/07 04:36:25;;;;;;;21.00;10.77;;;8.40;99.90;;;;;;5046626;28;20032;-77
2020/12/07 04:38:51;;;;;;;21.50;10.55;;;8.40;99.90;;;;;;5044993;28;20040;-77
2020/12/07 04:41:16;;;;;;;24.55;10.75;;;8.40;99.90;;;;;;5048704;28;20036;-77
2020/12/07 04:43:42;;;;;;;21.77;10.90;;;8.40;99.90;;;;;;5047865;28;20744;-77
2020/12/07 04:46:08;;;;;;;21.92;10.15;;;8.40;99.90;;;;;;5035569;28;20033;-78
2020/12/07 04:48:35;;;;;;;20.63;10.88;;;8.40;99.90;;;;;;5040816;28;20029;-77
2020/12/07 04:51:01;;;;;;;22.25;10.48;;;8.40;99.90;;;;;;5044635;28;20029;-77
2020/12/07 04:53:27;;;;;;;21.10;11.27;;;8.30;99.90;;;;;;5042752;28;20025;-77
2020/12/07 04:55:55;;;;;;;20.65;11.15;;;8.30;99.90;;;;;;5047935;28;20033;-77
2020/12/07 04:58:21;;;;;;;22.63;11.57;;;8.30;99.90;;;;;;5039443;28;20237;-77
2020/12/07 05:00:47;;;;;;;22.77;10.82;;;8.30;99.90;;;;;;5037688;28;20025;-77
2020/12/07 05:03:12;;;;;;;19.75;10.43;;;8.20;99.90;;;;;;5040933;28;20048;-77
2020/12/07 05:05:38;;;;;;;21.55;10.73;;;8.30;99.90;;;;;;5048355;28;20078;-77
2020/12/07 05:08:03;;;;;;;21.52;10.38;;;8.30;99.90;;;;;;5047684;28;20025;-77
2020/12/07 05:10:37;;;;;;;21.95;11.00;;;8.30;99.90;;;;;;5047974;28;20039;-77
2020/12/07 05:13:16;;;;;;;19.48;11.27;;;8.20;99.90;;;;;;5048058;28;20017;-77
2020/12/07 05:15:43;;;;;;;20.90;11.15;;;8.20;99.90;;;;;;5047192;28;20067;-80
2020/12/07 05:18:08;;;;;;;21.48;11.27;;;8.20;99.90;;;;;;5038270;28;20017;-80
2020/12/07 05:20:34;;;;;;;19.95;10.63;;;8.20;99.90;;;;;;5034476;28;20029;-80
2020/12/07 05:23:00;;;;;;;17.13;10.25;;;8.20;99.90;;;;;;5040376;28;20049;-80
2020/12/07 05:25:27;;;;;;;21.35;11.15;;;8.20;99.90;;;;;;5040075;28;20061;-80
2020/12/07 05:27:52;;;;;;;22.83;11.15;;;8.30;99.90;;;;;;5038349;28;20056;-80
2020/12/07 05:30:22;;;;;;;19.98;10.98;;;8.20;99.90;;;;;;5039980;28;20483;-80
2020/12/07 05:32:48;;;;;;;22.55;11.35;;;8.20;99.90;;;;;;5043045;28;20115;-80
2020/12/07 05:35:13;;;;;;;23.13;11.80;;;8.20;99.90;;;;;;5057302;28;20108;-80
2020/12/07 05:37:39;;;;;;;20.77;11.18;;;8.20;99.90;;;;;;5039355;28;20082;-80
2020/12/07 05:40:10;;;;;;;22.77;10.77;;;8.20;99.90;;;;;;5040113;28;20048;-76
2020/12/07 05:42:36;;;;;;;21.77;10.63;;;8.20;99.90;;;;;;5039324;28;20032;-76
2020/12/07 05:45:03;;;;;;;21.95;10.85;;;8.20;99.90;;;;;;5039492;28;20036;-77
2020/12/07 05:47:32;;;;;;;21.05;10.68;;;8.10;99.90;;;;;;5040033;28;20037;-77
2020/12/07 05:49:59;;;;;;;19.98;11.63;;;8.20;99.90;;;;;;5042115;28;20059;-77
2020/12/07 05:52:39;;;;;;;20.30;10.85;;;8.10;99.90;;;;;;5040269;28;20029;-78
2020/12/07 05:55:05;;;;;;;22.75;10.98;;;8.20;99.90;;;;;;5044043;28;20025;-77
2020/12/07 05:57:31;;;;;;;19.33;10.77;;;8.20;99.90;;;;;;5045971;28;20025;-77
2020/12/07 06:00:06;;;;;;;20.73;11.02;;;8.20;99.90;;;;;;5043635;28;20116;-76
2020/12/07 06:02:33;;;;;;;21.48;10.70;;;8.20;99.90;;;;;;5033071;28;20095;-77
2020/12/07 06:05:01;;;;;;;21.95;11.15;;;8.10;99.90;;;;;;5045099;28;20108;-76
2020/12/07 06:07:30;;;;;;;20.98;10.82;;;8.10;99.90;;;;;;5045181;28;20441;-76
2020/12/07 06:09:57;;;;;;;21.15;11.20;;;8.10;99.90;;;;;;5049879;28;20024;-84
2020/12/07 06:12:29;;;;;;;21.42;11.02;;;8.00;99.90;;;;;;5041237;28;20428;-81
2020/12/07 06:14:55;;;;;;;18.73;10.82;;;8.00;99.90;;;;;;5041970;28;20021;-84
2020/12/07 06:17:30;;;;;;;24.02;11.25;;;8.00;99.90;;;;;;5044366;28;20056;-85
2020/12/07 06:19:56;;;;;;;22.67;10.02;;;8.00;99.90;;;;;;5045620;28;20085;-80
2020/12/07 06:22:22;;;;;;;22.83;11.65;;;8.00;99.90;;;;;;5046461;28;20415;-81
2020/12/07 06:24:50;;;;;;;18.92;11.18;;;8.00;99.90;;;;;;5045336;28;20033;-85
2020/12/07 06:27:16;;;;;;;26.13;12.18;;;7.90;99.90;;;;;;5041131;28;20021;-73
2020/12/07 06:30:03;;;;;;;20.17;10.65;;;7.90;99.90;;;;;;5044088;28;20051;-74
2020/12/07 06:32:51;;;;;;;22.38;11.05;;;7.90;99.90;;;;;;5040297;28;20041;-78
2020/12/07 06:35:17;;;;;;;20.65;11.32;;;7.90;99.90;;;;;;5043343;28;20029;-76
2020/12/07 06:37:50;;;;;;;22.15;10.75;;;7.90;99.90;;;;;;5031536;28;20033;-84
2020/12/07 06:40:18;;;;;;;20.92;11.10;;;7.90;99.90;;;;;;5040716;28;20025;-77
2020/12/07 06:42:46;;;;;;;20.02;10.93;;;7.90;99.90;;;;;;5044058;28;20037;-77
2020/12/07 06:45:31;;;;;;;27.30;10.77;;;7.80;99.90;;;;;;5043763;28;20427;-75
2020/12/07 06:48:06;;;;;;;19.60;11.40;;;7.80;99.90;;;;;;5035201;28;20569;-76
2020/12/07 06:50:36;;;;;;;22.80;11.60;;;7.80;99.90;;;;;;5045064;28;20056;-76
2020/12/07 06:53:14;;;;;;;19.40;10.70;;;7.80;99.90;;;;;;5048828;28;20023;-76
2020/12/07 06:55:43;;;;;;;25.27;11.65;;;7.80;99.90;;;;;;5046318;28;20962;-76
2020/12/07 06:58:09;;;;;;;22.80;11.10;;;7.70;99.90;;;;;;5042414;28;20053;-76
2020/12/07 07:00:34;;;;;;;22.45;11.82;;;7.70;99.90;;;;;;5047557;28;20467;-76
2020/12/07 07:03:00;;;;;;;19.30;11.18;;;7.70;99.90;;;;;;5047492;28;20115;-76
2020/12/07 07:05:29;;;;;;;23.35;11.77;;;7.70;99.90;;;;;;5042311;28;20031;-77
2020/12/07 07:07:55;;;;;;;22.95;11.25;;;7.70;99.90;;;;;;5041992;28;20029;-78
2020/12/07 07:10:22;;;;;;;20.58;11.38;;;7.70;99.90;;;;;;5042005;28;20111;-76
2020/12/07 07:12:48;;;;;;;24.35;11.68;;;7.60;99.90;;;;;;5039826;28;20052;-82
2020/12/07 07:15:14;;;;;;;21.42;11.57;;;7.70;99.90;;;;;;5039021;28;20559;-83
2020/12/07 07:17:44;;;;;;;22.38;11.02;;;7.70;99.90;;;;;;5039312;28;20107;-82
2020/12/07 07:20:12;;;;;;;20.58;11.25;;;7.70;99.90;;;;;;5043076;28;20060;-82
2020/12/07 07:22:49;;;;;;;20.58;10.77;;;7.60;99.90;;;;;;5044190;28;20033;-82
2020/12/07 07:30:21;;;;;;;;;;;7.70;99.90;;;;;;5041691;28;20041;-82
2020/12/07 07:32:49;;;;;;;22.70;11.40;;;7.70;99.90;;;;;;5044213;28;20314;-81
2020/12/07 07:35:19;;;;;;;21.83;11.05;;;7.70;99.90;;;;;;5044970;28;20036;-82
2020/12/07 07:37:44;;;;;;;27.17;10.60;;;7.70;99.90;;;;;;5043313;28;20018;-83
2020/12/07 07:40:13;;;;;;;24.13;11.95;;;7.70;99.90;;;;;;5042521;28;20055;-82
2020/12/07 07:42:54;;;;;;;22.45;11.70;;;7.70;99.90;;;;;;5039680;28;20168;-82
2020/12/07 07:45:25;;;;;;;24.20;11.48;;;7.70;99.90;;;;;;5040427;28;20033;-82
2020/12/07 07:47:59;;;;;;;;;;;7.70;99.90;;;;;;5041451;28;20095;-82
2020/12/07 07:53:45;;;;;;;22.33;11.15;;;7.70;99.90;;;;;;5045467;28;20078;-82
2020/12/07 07:59:50;;;;;;;25.13;10.50;;;7.80;99.90;;;;;;5048890;28;20049;-84
2020/12/07 08:03:03;;;;;;;23.23;10.73;;;7.90;99.90;;;;;;5046485;28;20490;-83
2020/12/07 08:11:29;;;;;;;17.70;9.98;;;7.80;99.90;;;;;;5046658;28;20090;-83
2020/12/07 08:15:54;;;;;;;21.52;11.20;;;7.80;99.90;;;;;;5047265;28;20017;-83
2020/12/07 08:18:33;;;;;;;22.80;10.32;;;7.90;99.90;;;;;;5048398;28;20029;-84
2020/12/07 08:21:01;;;;;;;19.85;10.55;;;7.90;99.90;;;;;;5046704;28;20091;-83
2020/12/07 08:23:31;;;;;;;19.63;10.38;;;7.90;99.90;;;;;;5048313;28;20025;-83
2020/12/07 08:25:58;;;;;;;25.80;12.18;;;7.90;99.90;;;;;;5047545;28;20021;-83
2020/12/07 08:28:31;;;;;;;20.85;10.55;;;8.00;99.90;;;;;;5046735;28;20144;-83
2020/12/07 08:30:56;;;;;;;18.25;10.25;;;8.00;99.90;;;;;;5047412;28;20116;-83
2020/12/07 08:33:22;;;;;;;24.30;10.80;;;7.90;99.90;;;;;;5045553;28;20111;-83
2020/12/07 08:35:48;;;;;;;22.85;10.30;;;7.80;99.90;;;;;;5042719;28;20029;-83
2020/12/07 08:38:33;;;;;;;22.48;10.88;;;7.90;99.90;;;;;;5047053;28;20028;-83
2020/12/07 08:41:16;;;;;;;18.30;10.15;;;8.00;99.90;;;;;;5044882;28;20140;-83
2020/12/07 08:43:46;;;;;;;24.27;10.93;;;8.00;99.90;;;;;;5044556;28;20052;-83
2020/12/07 08:46:16;;;;;;;23.00;10.70;;;8.00;99.90;;;;;;5047318;28;20025;-83
2020/12/07 08:48:42;;;;;;;21.75;11.20;;;8.00;99.90;;;;;;5039650;28;20041;-84
2020/12/07 08:51:08;;;;;;;18.83;10.25;;;8.00;99.90;;;;;;5046592;28;20029;-83
2020/12/07 08:53:34;;;;;;;21.73;10.82;;;8.00;99.90;;;;;;5045553;28;20021;-82
2020/12/07 08:56:10;;;;;;;21.48;10.10;;;8.00;99.90;;;;;;5043836;28;20024;-84
2020/12/07 08:58:37;;;;;;;18.08;9.98;;;8.00;99.90;;;;;;5045280;28;20113;-83
2020/12/07 09:01:10;;;;;;;23.08;10.73;;;8.00;99.90;;;;;;5043064;28;20060;-83
2020/12/07 09:03:38;;;;;;;21.80;10.57;;;8.10;99.90;;;;;;5042622;28;20025;-83
2020/12/07 09:06:04;;;;;;;19.23;10.75;;;8.10;99.90;;;;;;5041510;28;20044;-82
2020/12/07 09:08:30;;;;;;;26.05;11.07;;;8.10;99.90;;;;;;5046991;28;20029;-82
2020/12/07 09:10:56;;;;;;;22.58;11.27;;;8.10;99.90;;;;;;5039582;28;20021;-82
2020/12/07 09:13:25;;;;;;;20.88;10.85;;;8.10;99.90;;;;;;5045854;28;20032;-82
2020/12/07 09:15:52;;;;;;;19.75;10.85;;;8.10;99.90;;;;;;5041419;28;21535;-82
2020/12/07 09:18:19;;;;;;;19.58;10.80;;;8.20;99.90;;;;;;5044686;28;20029;-82
2020/12/07 09:20:44;;;;;;;23.15;11.00;;;8.20;99.90;;;;;;5043015;28;20024;-82
2020/12/07 09:23:10;;;;;;;23.38;11.50;;;8.20;99.90;;;;;;5046159;28;20509;-82
2020/12/07 09:25:35;;;;;;;24.58;11.60;;;8.20;99.90;;;;;;5043200;28;20028;-77
2020/12/07 09:28:01;;;;;;;22.38;11.48;;;8.20;99.90;;;;;;5045476;28;20039;-76
2020/12/07 09:30:27;;;;;;;24.10;11.40;;;8.20;99.90;;;;;;5041524;28;20551;-82
2020/12/07 09:32:52;;;;;;;20.25;10.55;;;8.30;99.90;;;;;;5037577;28;20029;-79
2020/12/07 09:35:18;;;;;;;22.25;10.88;;;8.20;99.90;;;;;;5048009;28;20053;-83
2020/12/07 09:37:44;;;;;;;19.77;10.27;;;8.20;99.90;;;;;;5047168;28;20150;-75
2020/12/07 09:40:12;;;;;;;20.55;10.43;;;8.20;99.90;;;;;;5032772;28;20563;-83
2020/12/07 09:42:39;;;;;;;24.50;11.10;;;8.20;99.90;;;;;;5039743;28;20033;-80
2020/12/07 09:45:06;;;;;;;23.88;10.68;;;8.30;99.90;;;;;;5046541;28;20033;-79
2020/12/07 09:47:31;;;;;;;24.65;10.88;;;8.20;99.90;;;;;;5043094;28;20048;-79
2020/12/07 09:49:57;;;;;;;22.02;10.88;;;8.20;99.90;;;;;;5036533;28;20017;-79
2020/12/07 09:52:23;;;;;;;20.80;11.30;;;8.20;99.90;;;;;;5038821;28;20104;-79
2020/12/07 09:54:48;;;;;;;20.20;11.13;;;8.20;99.90;;;;;;5027835;28;20037;-79
2020/12/07 09:57:15;;;;;;;22.70;10.77;;;8.10;99.90;;;;;;5043220;28;20017;-79
2020/12/07 09:59:40;;;;;;;21.63;11.45;;;8.20;99.90;;;;;;5032188;28;20053;-79
2020/12/07 10:02:06;;;;;;;20.23;11.40;;;8.20;99.90;;;;;;5028126;28;20052;-79
2020/12/07 10:04:32;;;;;;;21.55;10.55;;;8.20;99.90;;;;;;5028292;28;20025;-79
2020/12/07 10:06:58;;;;;;;22.48;11.25;;;8.20;99.90;;;;;;5029404;28;20160;-79
2020/12/07 10:09:23;;;;;;;24.20;10.88;;;8.20;99.90;;;;;;5048205;28;20108;-79
2020/12/07 10:11:49;;;;;;;19.80;10.20;;;8.20;99.90;;;;;;5046275;28;20060;-79
2020/12/07 10:14:15;;;;;;;21.17;11.18;;;8.30;99.90;;;;;;5048207;28;20021;-79
2020/12/07 10:16:44;;;;;;;19.90;10.75;;;8.30;99.90;;;;;;5048039;28;20017;-79
2020/12/07 10:19:10;;;;;;;20.13;10.15;;;8.30;99.90;;;;;;5047614;28;20025;-79
2020/12/07 10:21:36;;;;;;;19.35;11.32;;;8.30;99.90;;;;;;5047907;28;20029;-79
2020/12/07 10:24:01;;;;;;;24.10;11.23;;;8.40;99.90;;;;;;5038351;28;20067;-79
2020/12/07 10:26:27;;;;;;;21.27;11.35;;;8.30;99.90;;;;;;5027953;28;20040;-79
2020/12/07 10:28:53;;;;;;;22.15;10.50;;;8.30;99.90;;;;;;5030041;28;20041;-79
2020/12/07 10:31:19;;;;;;;21.33;11.70;;;8.30;99.90;;;;;;5029172;28;20666;-79
2020/12/07 10:33:47;;;;;;;19.42;10.98;;;8.30;99.90;;;;;;5031768;28;20093;-79
2020/12/07 10:36:12;;;;;;;20.30;10.43;;;8.30;99.90;;;;;;5027761;28;20028;-79
2020/12/07 10:38:38;;;;;;;24.15;11.88;;;8.30;99.90;;;;;;5027984;28;20022;-79
2020/12/07 10:41:04;;;;;;;19.02;10.88;;;8.30;99.90;;;;;;5028422;28;20075;-79
2020/12/07 10:43:30;;;;;;;19.20;10.65;;;8.30;99.90;;;;;;5043240;28;20033;-79
2020/12/07 10:45:56;;;;;;;20.48;10.68;;;8.30;99.90;;;;;;5047280;28;20087;-79
2020/12/07 10:48:22;;;;;;;21.70;10.38;;;8.40;99.90;;;;;;5032003;28;20488;-79
2020/12/07 10:50:47;;;;;;;20.20;10.48;;;8.40;99.90;;;;;;5042850;28;20091;-79
2020/12/07 10:53:13;;;;;;;18.08;10.80;;;8.40;99.90;;;;;;5030852;28;20072;-79
2020/12/07 10:55:39;;;;;;;29.88;13.23;;;8.50;99.90;;;;;;5027567;28;20116;-79
2020/12/07 10:58:04;;;;;;;26.73;11.80;;;8.50;99.90;;;;;;5030676;28;20036;-79
2020/12/07 11:00:30;;;;;;;19.85;10.88;;;8.50;99.90;;;;;;5027138;28;20021;-79
2020/12/07 11:02:56;;;;;;;26.70;11.20;;;8.50;99.90;;;;;;5027508;28;20029;-80
2020/12/07 11:05:21;;;;;;;20.10;10.68;;;8.50;99.90;;;;;;5027176;28;20623;-79
2020/12/07 11:07:49;;;;;;;22.95;10.80;;;8.50;99.90;;;;;;5037490;28;20104;-79
2020/12/07 11:10:15;;;;;;;23.80;10.68;;;8.50;99.90;;;;;;5044173;28;20104;-79
2020/12/07 11:12:43;;;;;;;22.80;11.88;;;8.50;99.90;;;;;;5046827;28;20611;-79
2020/12/07 11:15:08;;;;;;;25.20;11.55;;;8.60;99.90;;;;;;5047365;28;20471;-79
2020/12/07 11:17:34;;;;;;;24.15;11.32;;;8.60;99.90;;;;;;5047402;28;20016;-79
2020/12/07 11:19:59;;;;;;;19.95;10.77;;;8.60;99.90;;;;;;5047163;28;20021;-79
2020/12/07 11:22:25;;;;;;;19.45;10.70;;;8.50;99.90;;;;;;5047088;28;20074;-79
2020/12/07 11:24:50;;;;;;;19.60;10.95;;;8.50;99.90;;;;;;5049879;28;20033;-79
2020/12/07 11:27:16;;;;;;;21.08;10.10;;;8.60;99.90;;;;;;5044144;28;20029;-79
2020/12/07 11:29:41;;;;;;;19.73;11.02;;;8.60;99.90;;;;;;5037269;28;20090;-79
2020/12/07 11:32:07;;;;;;;21.25;10.75;;;8.70;99.90;;;;;;5035115;28;20045;-79
2020/12/07 11:34:32;;;;;;;19.95;11.10;;;8.70;99.90;;;;;;5031066;28;20124;-79
2020/12/07 11:36:58;;;;;;;23.23;11.20;;;8.70;99.90;;;;;;5030909;28;20023;-79
2020/12/07 11:42:04;;;;;;;21.38;10.77;;;8.70;99.90;;;;;;5034068;28;20495;-79
2020/12/07 11:44:29;;;;;;;19.83;10.70;;;8.70;99.90;;;;;;5046765;28;20055;-79
2020/12/07 11:47:00;;;;;;;20.98;11.40;;;8.80;99.90;;;;;;5050413;28;20480;-79
2020/12/07 11:49:26;;;;;;;22.63;11.68;;;8.80;99.90;;;;;;5050795;28;20063;-79
2020/12/07 11:51:52;;;;;;;21.42;11.55;;;8.80;99.90;;;;;;5044593;28;20057;-80
2020/12/07 11:54:17;;;;;;;18.27;9.75;;;8.90;99.90;;;;;;5044652;28;20424;-79
2020/12/07 11:56:43;;;;;;;26.35;11.32;;;8.80;99.90;;;;;;5045757;28;20022;-79
2020/12/07 11:59:09;;;;;;;18.33;10.77;;;8.80;99.90;;;;;;5030202;28;20108;-79
2020/12/07 12:01:35;;;;;;;21.25;11.23;;;8.90;99.90;;;;;;5030556;28;20048;-79
2020/12/07 12:04:02;;;;;;;21.63;11.35;;;9.00;99.90;;;;;;5038082;28;20025;-80
2020/12/07 12:06:30;;;;;;;21.50;11.60;;;9.00;99.90;;;;;;5049912;28;20061;-79
2020/12/07 12:08:56;;;;;;;20.05;11.40;;;9.00;99.90;;;;;;5049728;28;20383;-79
2020/12/07 12:11:29;;;;;;;19.90;11.75;;;9.00;99.90;;;;;;5049715;28;20040;-79
2020/12/07 12:13:55;;;;;;;21.52;11.00;;;9.00;99.90;;;;;;5049931;28;20372;-79
2020/12/07 12:16:21;;;;;;;22.40;11.98;;;9.10;99.90;;;;;;5050156;28;20028;-79
2020/12/07 12:18:47;;;;;;;24.20;11.63;;;9.10;99.90;;;;;;5050015;28;20021;-80
2020/12/07 12:21:12;;;;;;;20.60;11.50;;;9.10;99.90;;;;;;5042175;28;20034;-79
2020/12/07 12:23:41;;;;;;;23.35;10.88;;;9.10;99.90;;;;;;5030352;28;20026;-80
2020/12/07 12:26:07;;;;;;;19.45;10.57;;;9.10;99.90;;;;;;5037164;28;20025;-80
2020/12/07 12:28:32;;;;;;;20.02;11.95;;;9.00;99.90;;;;;;5049096;28;20151;-80
2020/12/07 12:30:58;;;;;;;24.98;10.65;;;9.10;99.90;;;;;;5029831;28;20084;-79
2020/12/07 12:33:23;;;;;;;19.75;11.27;;;9.10;99.90;;;;;;5029903;28;20010;-80
2020/12/07 12:35:49;;;;;;;19.52;10.73;;;9.10;99.90;;;;;;5029063;28;20076;-79
2020/12/07 12:38:14;;;;;;;22.73;11.27;;;9.10;99.90;;;;;;5036966;28;20044;-79
2020/12/07 12:40:40;;;;;;;25.38;11.90;;;9.10;99.90;;;;;;5033919;28;20112;-79
2020/12/07 12:43:06;;;;;;;22.42;11.25;;;9.10;99.90;;;;;;5036202;28;20476;-80
2020/12/07 12:45:31;;;;;;;21.55;11.27;;;9.10;99.90;;;;;;5029671;28;20037;-80
2020/12/07 12:47:57;;;;;;;21.05;11.20;;;9.10;99.90;;;;;;5031893;28;20075;-79
2020/12/07 12:50:25;;;;;;;19.02;10.77;;;9.10;99.90;;;;;;5049328;28;20053;-80
2020/12/07 12:52:51;;;;;;;23.85;12.05;;;9.10;99.90;;;;;;5035911;28;20052;-80
2020/12/07 12:55:17;;;;;;;27.42;12.85;;;9.00;99.90;;;;;;5029574;28;20049;-79
2020/12/07 12:57:45;;;;;;;20.20;11.70;;;9.00;99.90;;;;;;5036537;28;20083;-79
2020/12/07 13:00:11;;;;;;;25.48;12.43;;;9.00;99.90;;;;;;5029304;28;20080;-79